Wasilla, Alaska
Current Conditions -  °F | °C
As of 1:16 PM on Friday 24 Oct 2014 (Local Time) from PAWS Reporting Station
Overcast Overcast  
Wind Chill: 34°   Ceiling: 6500
Heat Index: 34°   Visibility: 10mi
Dew Point: 19°   Wind: 0mph
Humidity: 56%   Direction: NA
Pressure: 29.81"   Gusts: NA
Location:  61.58°N, 149.45°W
Report Text: PAWS 242116Z AUTO 00000KT 10SM OVC065 01/M07 A2981 RMK AO1
Loading
Personal Weather Stations






























Interactive Weather Map New forecast layout! Learn more

10-Day Weather Forecast

Advertisements
Track Severe Weather on mobile